sensor_id;sensor_type;location;lat;lon;timestamp;pressure;altitude;pressure_sealevel;temperature;humidity
73332;BME280;61560;33.718;73.040;2022-11-15T00:00:43;95348.31;;;11.65;89.36
73332;BME280;61560;33.718;73.040;2022-11-15T00:03:29;95354.22;;;11.60;89.13
73332;BME280;61560;33.718;73.040;2022-11-15T00:06:14;95352.69;;;11.55;89.35
73332;BME280;61560;33.718;73.040;2022-11-15T00:09:00;95355.06;;;11.53;89.50
73332;BME280;61560;33.718;73.040;2022-11-15T00:11:47;95353.13;;;11.50;89.37
73332;BME280;61560;33.718;73.040;2022-11-15T00:14:32;95347.66;;;11.50;88.98
73332;BME280;61560;33.718;73.040;2022-11-15T00:17:18;95348.44;;;11.47;89.21
73332;BME280;61560;33.718;73.040;2022-11-15T00:20:04;95350.44;;;11.47;88.78
73332;BME280;61560;33.718;73.040;2022-11-15T00:22:50;95352.44;;;11.43;88.58
73332;BME280;61560;33.718;73.040;2022-11-15T00:25:36;95353.22;;;11.40;88.63
73332;BME280;61560;33.718;73.040;2022-11-15T00:28:21;95356.78;;;11.33;88.67
73332;BME280;61560;33.718;73.040;2022-11-15T00:31:12;95357.97;;;11.36;88.49
73332;BME280;61560;33.718;73.040;2022-11-15T00:33:58;95362.28;;;11.33;88.43
73332;BME280;61560;33.718;73.040;2022-11-15T00:36:44;95365.44;;;11.32;88.29
73332;BME280;61560;33.718;73.040;2022-11-15T00:39:30;95352.53;;;11.29;88.81
73332;BME280;61560;33.718;73.040;2022-11-15T00:42:16;95351.34;;;11.30;88.35
73332;BME280;61560;33.718;73.040;2022-11-15T00:45:02;95352.50;;;11.32;88.53
73332;BME280;61560;33.718;73.040;2022-11-15T00:47:47;95356.78;;;11.33;88.84
73332;BME280;61560;33.718;73.040;2022-11-15T00:50:33;95352.50;;;11.32;88.35
73332;BME280;61560;33.718;73.040;2022-11-15T00:53:18;95353.28;;;11.33;87.97
73332;BME280;61560;33.718;73.040;2022-11-15T00:56:04;95359.16;;;11.35;87.96
73332;BME280;61560;33.718;73.040;2022-11-15T00:58:50;95365.84;;;11.30;88.03
73332;BME280;61560;33.718;73.040;2022-11-15T01:01:35;95352.19;;;11.23;88.32
73332;BME280;61560;33.718;73.040;2022-11-15T01:04:21;95363.53;;;11.25;88.08
73332;BME280;61560;33.718;73.040;2022-11-15T01:07:07;95354.13;;;11.23;88.11
73332;BME280;61560;33.718;73.040;2022-11-15T01:09:52;95359.63;;;11.26;87.92
73332;BME280;61560;33.718;73.040;2022-11-15T01:12:37;95357.63;;;11.27;88.16
73332;BME280;61560;33.718;73.040;2022-11-15T01:15:24;95360.75;;;11.29;88.11
73332;BME280;61560;33.718;73.040;2022-11-15T01:18:09;95358.00;;;11.29;87.98
73332;BME280;61560;33.718;73.040;2022-11-15T01:20:55;95364.31;;;11.26;87.78
73332;BME280;61560;33.718;73.040;2022-11-15T01:23:40;95356.09;;;11.26;87.91
73332;BME280;61560;33.718;73.040;2022-11-15T01:26:26;95358.41;;;11.27;87.89
73332;BME280;61560;33.718;73.040;2022-11-15T01:29:11;95359.19;;;11.28;87.76
73332;BME280;61560;33.718;73.040;2022-11-15T01:31:56;95359.63;;;11.26;87.84
73332;BME280;61560;33.718;73.040;2022-11-15T01:34:42;95365.13;;;11.19;87.79
73332;BME280;61560;33.718;73.040;2022-11-15T01:37:27;95367.09;;;11.19;87.38
73332;BME280;61560;33.718;73.040;2022-11-15T01:40:12;95377.72;;;11.13;87.41
73332;BME280;61560;33.718;73.040;2022-11-15T01:42:58;95384.03;;;11.10;87.46
73332;BME280;61560;33.718;73.040;2022-11-15T01:45:45;95392.25;;;11.10;88.13
73332;BME280;61560;33.718;73.040;2022-11-15T01:48:35;95390.66;;;11.09;88.00
73332;BME280;61560;33.718;73.040;2022-11-15T01:51:23;95387.94;;;11.09;87.81
73332;BME280;61560;33.718;73.040;2022-11-15T01:54:14;95388.34;;;11.04;87.50
73332;BME280;61560;33.718;73.040;2022-11-15T01:57:05;95396.56;;;11.08;88.42
73332;BME280;61560;33.718;73.040;2022-11-15T01:59:52;95394.19;;;11.06;88.04
73332;BME280;61560;33.718;73.040;2022-11-15T02:02:38;95396.94;;;11.06;87.94
73332;BME280;61560;33.718;73.040;2022-11-15T02:05:24;95401.66;;;11.06;86.86
73332;BME280;61560;33.718;73.040;2022-11-15T02:08:10;95407.13;;;11.09;87.04
73332;BME280;61560;33.718;73.040;2022-11-15T02:11:09;95414.91;;;11.18;87.01
73332;BME280;61560;33.718;73.040;2022-11-15T02:13:55;95424.63;;;11.26;86.53
73332;BME280;61560;33.718;73.040;2022-11-15T02:29:07;95438.09;;;11.61;86.62
73332;BME280;61560;33.718;73.040;2022-11-15T02:32:03;95444.63;;;11.81;85.91
73332;BME280;61560;33.718;73.040;2022-11-15T02:43:10;95448.69;;;12.10;84.81
73332;BME280;61560;33.718;73.040;2022-11-15T02:49:31;95444.09;;;12.71;82.46
73332;BME280;61560;33.718;73.040;2022-11-15T02:52:22;95449.47;;;12.82;81.33
73332;BME280;61560;33.718;73.040;2022-11-15T02:55:24;95459.91;;;12.94;81.56
73332;BME280;61560;33.718;73.040;2022-11-15T03:01:04;95451.72;;;13.21;80.77
73332;BME280;61560;33.718;73.040;2022-11-15T03:03:59;95451.66;;;13.28;80.39
73332;BME280;61560;33.718;73.040;2022-11-15T03:06:50;95462.03;;;13.43;80.14
73332;BME280;61560;33.718;73.040;2022-11-15T03:09:57;95472.53;;;13.52;79.09
73332;BME280;61560;33.718;73.040;2022-11-15T03:13:08;95488.72;;;13.46;79.90
73332;BME280;61560;33.718;73.040;2022-11-15T03:16:02;95491.47;;;13.46;80.19
73332;BME280;61560;33.718;73.040;2022-11-15T03:18:50;95486.94;;;13.59;79.99
73332;BME280;61560;33.718;73.040;2022-11-15T03:21:36;95490.84;;;13.62;79.49
73332;BME280;61560;33.718;73.040;2022-11-15T03:24:21;95503.16;;;13.54;79.34
73332;BME280;61560;33.718;73.040;2022-11-15T03:27:09;95503.97;;;13.51;80.41
73332;BME280;61560;33.718;73.040;2022-11-15T03:29:57;95506.56;;;13.61;80.05
73332;BME280;61560;33.718;73.040;2022-11-15T03:32:45;95502.22;;;13.64;80.79
73332;BME280;61560;33.718;73.040;2022-11-15T03:35:33;95508.03;;;13.69;80.84
73332;BME280;61560;33.718;73.040;2022-11-15T03:38:24;95511.72;;;13.86;80.95
73332;BME280;61560;33.718;73.040;2022-11-15T03:41:13;95512.22;;;14.04;79.71
73332;BME280;61560;33.718;73.040;2022-11-15T03:44:03;95508.69;;;14.27;79.04
73332;BME280;61560;33.718;73.040;2022-11-15T03:47:00;95517.59;;;14.38;77.63
73332;BME280;61560;33.718;73.040;2022-11-15T03:49:57;95525.19;;;14.53;78.57
73332;BME280;61560;33.718;73.040;2022-11-15T03:52:46;95532.53;;;14.83;76.90
73332;BME280;61560;33.718;73.040;2022-11-15T03:55:32;95526.63;;;15.04;74.54
73332;BME280;61560;33.718;73.040;2022-11-15T03:58:18;95529.44;;;15.20;73.08
73332;BME280;61560;33.718;73.040;2022-11-15T04:01:03;95536.66;;;15.34;72.47
73332;BME280;61560;33.718;73.040;2022-11-15T04:03:49;95528.53;;;15.46;72.17
73332;BME280;61560;33.718;73.040;2022-11-15T04:06:34;95542.47;;;15.59;71.73
73332;BME280;61560;33.718;73.040;2022-11-15T04:09:19;95540.66;;;15.69;71.46
73332;BME280;61560;33.718;73.040;2022-11-15T04:12:04;95547.09;;;15.82;70.41
73332;BME280;61560;33.718;73.040;2022-11-15T04:14:49;95541.41;;;15.89;70.03
73332;BME280;61560;33.718;73.040;2022-11-15T04:17:55;95534.59;;;15.93;69.65
73332;BME280;61560;33.718;73.040;2022-11-15T04:20:40;95542.38;;;15.98;69.45
73332;BME280;61560;33.718;73.040;2022-11-15T04:23:44;95539.72;;;16.11;69.24
73332;BME280;61560;33.718;73.040;2022-11-15T04:26:47;95532.97;;;16.28;68.23
73332;BME280;61560;33.718;73.040;2022-11-15T04:29:32;95534.69;;;16.38;67.95
73332;BME280;61560;33.718;73.040;2022-11-15T04:32:20;95540.69;;;16.53;67.62
73332;BME280;61560;33.718;73.040;2022-11-15T04:35:05;95539.31;;;16.61;66.09
73332;BME280;61560;33.718;73.040;2022-11-15T04:37:50;95545.44;;;16.68;66.56
73332;BME280;61560;33.718;73.040;2022-11-15T04:40:36;95548.97;;;16.85;65.43
73332;BME280;61560;33.718;73.040;2022-11-15T04:43:21;95542.16;;;17.02;64.76
73332;BME280;61560;33.718;73.040;2022-11-15T04:46:06;95540.31;;;17.40;65.11
73332;BME280;61560;33.718;73.040;2022-11-15T04:48:52;95537.44;;;17.85;64.03
73332;BME280;61560;33.718;73.040;2022-11-15T04:51:38;95552.53;;;18.09;62.44
73332;BME280;61560;33.718;73.040;2022-11-15T04:54:23;95545.31;;;18.12;60.46
73332;BME280;61560;33.718;73.040;2022-11-15T04:57:08;95545.88;;;18.07;62.09
73332;BME280;61560;33.718;73.040;2022-11-15T04:59:53;95547.78;;;18.10;60.58
73332;BME280;61560;33.718;73.040;2022-11-15T05:02:38;95547.22;;;17.89;60.54
73332;BME280;61560;33.718;73.040;2022-11-15T05:05:41;95538.06;;;17.64;61.55
73332;BME280;61560;33.718;73.040;2022-11-15T05:08:26;95539.63;;;17.65;62.78
73332;BME280;61560;33.718;73.040;2022-11-15T05:11:11;95536.75;;;17.68;61.57
73332;BME280;61560;33.718;73.040;2022-11-15T05:13:57;95533.19;;;17.68;62.58
73332;BME280;61560;33.718;73.040;2022-11-15T05:16:41;95533.75;;;17.75;62.60
73332;BME280;61560;33.718;73.040;2022-11-15T05:19:26;95532.56;;;17.76;61.87
73332;BME280;61560;33.718;73.040;2022-11-15T05:22:14;95533.22;;;17.80;61.91
73332;BME280;61560;33.718;73.040;2022-11-15T05:25:01;95529.13;;;17.85;62.02
73332;BME280;61560;33.718;73.040;2022-11-15T05:27:46;95524.25;;;17.89;61.98
73332;BME280;61560;33.718;73.040;2022-11-15T05:30:31;95520.50;;;17.95;61.26
73332;BME280;61560;33.718;73.040;2022-11-15T05:33:16;95523.59;;;17.97;60.89
73332;BME280;61560;33.718;73.040;2022-11-15T05:38:52;95511.59;;;18.00;60.15
73332;BME280;61560;33.718;73.040;2022-11-15T05:41:42;95515.69;;;18.09;58.11
73332;BME280;61560;33.718;73.040;2022-11-15T05:44:30;95522.03;;;18.09;57.84
73332;BME280;61560;33.718;73.040;2022-11-15T05:47:19;95515.94;;;18.14;57.67
73332;BME280;61560;33.718;73.040;2022-11-15T05:50:05;95515.69;;;18.21;58.29
73332;BME280;61560;33.718;73.040;2022-11-15T05:52:51;95505.06;;;18.32;58.17
73332;BME280;61560;33.718;73.040;2022-11-15T05:55:37;95505.59;;;18.27;58.28
73332;BME280;61560;33.718;73.040;2022-11-15T05:58:23;95503.50;;;18.31;58.73
73332;BME280;61560;33.718;73.040;2022-11-15T06:01:08;95498.28;;;18.33;58.80
73332;BME280;61560;33.718;73.040;2022-11-15T06:03:53;95499.16;;;18.43;58.99
73332;BME280;61560;33.718;73.040;2022-11-15T06:06:39;95500.38;;;18.42;58.58
73332;BME280;61560;33.718;73.040;2022-11-15T06:09:25;95493.97;;;18.45;58.85
73332;BME280;61560;33.718;73.040;2022-11-15T06:12:10;95496.81;;;18.54;59.26
73332;BME280;61560;33.718;73.040;2022-11-15T06:14:58;95489.47;;;18.60;60.21
73332;BME280;61560;33.718;73.040;2022-11-15T06:17:43;95484.16;;;18.65;61.23
73332;BME280;61560;33.718;73.040;2022-11-15T06:20:28;95483.44;;;18.74;60.10
73332;BME280;61560;33.718;73.040;2022-11-15T06:23:14;95486.53;;;18.76;59.28
73332;BME280;61560;33.718;73.040;2022-11-15T06:25:59;95473.78;;;18.78;59.68
73332;BME280;61560;33.718;73.040;2022-11-15T06:28:44;95476.44;;;18.82;57.83
73332;BME280;61560;33.718;73.040;2022-11-15T06:31:29;95461.84;;;18.91;58.81
73332;BME280;61560;33.718;73.040;2022-11-15T06:34:15;95457.38;;;18.93;58.37
73332;BME280;61560;33.718;73.040;2022-11-15T06:37:00;95451.38;;;18.95;58.44
73332;BME280;61560;33.718;73.040;2022-11-15T06:39:46;95445.25;;;19.00;59.33
73332;BME280;61560;33.718;73.040;2022-11-15T06:42:31;95443.91;;;19.04;59.62
73332;BME280;61560;33.718;73.040;2022-11-15T06:45:16;95440.53;;;19.09;59.99
73332;BME280;61560;33.718;73.040;2022-11-15T06:48:01;95427.75;;;19.12;59.24
73332;BME280;61560;33.718;73.040;2022-11-15T06:50:53;95432.34;;;19.06;59.74
73332;BME280;61560;33.718;73.040;2022-11-15T06:53:39;95423.44;;;19.11;59.62
73332;BME280;61560;33.718;73.040;2022-11-15T06:56:24;95424.19;;;19.11;59.92
73332;BME280;61560;33.718;73.040;2022-11-15T06:59:09;95416.41;;;19.19;60.04
73332;BME280;61560;33.718;73.040;2022-11-15T07:01:54;95412.44;;;19.29;60.30
73332;BME280;61560;33.718;73.040;2022-11-15T07:04:40;95406.63;;;19.36;60.13
73332;BME280;61560;33.718;73.040;2022-11-15T07:07:25;95404.06;;;19.41;59.78
73332;BME280;61560;33.718;73.040;2022-11-15T07:10:10;95395.25;;;19.43;58.38
73332;BME280;61560;33.718;73.040;2022-11-15T07:12:55;95389.69;;;19.43;57.95
73332;BME280;61560;33.718;73.040;2022-11-15T07:15:40;95389.09;;;19.48;58.45
73332;BME280;61560;33.718;73.040;2022-11-15T07:18:25;95388.50;;;19.53;58.35
73332;BME280;61560;33.718;73.040;2022-11-15T07:21:11;95388.03;;;19.54;57.48
73332;BME280;61560;33.718;73.040;2022-11-15T07:23:59;95376.94;;;19.54;56.77
73332;BME280;61560;33.718;73.040;2022-11-15T07:26:44;95369.69;;;19.57;56.63
73332;BME280;61560;33.718;73.040;2022-11-15T07:29:29;95376.66;;;19.62;56.84
73332;BME280;61560;33.718;73.040;2022-11-15T07:32:14;95365.72;;;19.67;56.65
73332;BME280;61560;33.718;73.040;2022-11-15T07:35:00;95361.56;;;19.72;56.89
73332;BME280;61560;33.718;73.040;2022-11-15T07:38:19;95356.31;;;19.74;56.27
73332;BME280;61560;33.718;73.040;2022-11-15T07:41:00;95354.94;;;19.78;56.20
73332;BME280;61560;33.718;73.040;2022-11-15T07:43:45;95351.22;;;19.81;55.18
73332;BME280;61560;33.718;73.040;2022-11-15T07:46:30;95342.00;;;19.84;54.28
73332;BME280;61560;33.718;73.040;2022-11-15T07:49:15;95345.56;;;19.94;54.28
73332;BME280;61560;33.718;73.040;2022-11-15T07:52:00;95330.13;;;20.02;53.92
73332;BME280;61560;33.718;73.040;2022-11-15T07:54:45;95327.66;;;20.04;51.80
73332;BME280;61560;33.718;73.040;2022-11-15T07:57:34;95325.34;;;20.02;52.22
73332;BME280;61560;33.718;73.040;2022-11-15T08:00:22;95323.47;;;19.99;52.96
73332;BME280;61560;33.718;73.040;2022-11-15T08:03:08;95325.63;;;19.86;51.69
73332;BME280;61560;33.718;73.040;2022-11-15T08:05:54;95325.75;;;19.74;51.38
73332;BME280;61560;33.718;73.040;2022-11-15T08:08:39;95308.59;;;19.66;49.96
73332;BME280;61560;33.718;73.040;2022-11-15T08:11:25;95302.41;;;19.62;49.77
73332;BME280;61560;33.718;73.040;2022-11-15T08:14:10;95303.03;;;19.66;49.94
73332;BME280;61560;33.718;73.040;2022-11-15T08:16:57;95302.25;;;19.75;50.42
73332;BME280;61560;33.718;73.040;2022-11-15T08:19:42;95299.66;;;19.80;50.94
73332;BME280;61560;33.718;73.040;2022-11-15T08:22:27;95293.78;;;19.87;51.04
73332;BME280;61560;33.718;73.040;2022-11-15T08:25:12;95297.06;;;19.95;50.25
73332;BME280;61560;33.718;73.040;2022-11-15T08:27:58;95290.41;;;19.92;49.50
73332;BME280;61560;33.718;73.040;2022-11-15T08:30:43;95283.31;;;20.00;50.09
73332;BME280;61560;33.718;73.040;2022-11-15T08:33:31;95280.22;;;20.07;49.35
73332;BME280;61560;33.718;73.040;2022-11-15T08:36:17;95280.22;;;20.16;49.70
73332;BME280;61560;33.718;73.040;2022-11-15T08:39:02;95282.75;;;20.23;49.47
73332;BME280;61560;33.718;73.040;2022-11-15T08:41:47;95278.25;;;20.35;49.69
73332;BME280;61560;33.718;73.040;2022-11-15T08:44:32;95279.47;;;20.43;50.09
73332;BME280;61560;33.718;73.040;2022-11-15T08:47:17;95280.41;;;20.49;50.53
73332;BME280;61560;33.718;73.040;2022-11-15T08:50:03;95276.22;;;20.45;50.86
73332;BME280;61560;33.718;73.040;2022-11-15T08:52:47;95280.88;;;20.38;51.96
73332;BME280;61560;33.718;73.040;2022-11-15T08:55:35;95277.16;;;20.32;52.97
73332;BME280;61560;33.718;73.040;2022-11-15T08:58:21;95269.13;;;20.34;52.25
73332;BME280;61560;33.718;73.040;2022-11-15T09:01:06;95264.16;;;20.38;51.57
73332;BME280;61560;33.718;73.040;2022-11-15T09:03:57;95274.03;;;20.49;52.22
73332;BME280;61560;33.718;73.040;2022-11-15T09:06:42;95271.44;;;20.45;51.27
73332;BME280;61560;33.718;73.040;2022-11-15T09:09:27;95262.16;;;20.39;51.31
73332;BME280;61560;33.718;73.040;2022-11-15T09:12:12;95270.50;;;20.39;51.51
73332;BME280;61560;33.718;73.040;2022-11-15T09:14:57;95268.66;;;20.45;51.59
73332;BME280;61560;33.718;73.040;2022-11-15T09:17:42;95267.13;;;20.44;51.03
73332;BME280;61560;33.718;73.040;2022-11-15T09:20:27;95253.34;;;20.40;50.92
73332;BME280;61560;33.718;73.040;2022-11-15T09:23:12;95251.97;;;20.36;51.06
73332;BME280;61560;33.718;73.040;2022-11-15T09:25:58;95251.19;;;20.26;51.29
73332;BME280;61560;33.718;73.040;2022-11-15T09:28:44;95245.00;;;20.13;52.13
73332;BME280;61560;33.718;73.040;2022-11-15T09:31:29;95238.06;;;20.09;52.31
73332;BME280;61560;33.718;73.040;2022-11-15T09:34:15;95232.63;;;20.05;52.62
73332;BME280;61560;33.718;73.040;2022-11-15T09:37:00;95241.75;;;20.06;52.25
73332;BME280;61560;33.718;73.040;2022-11-15T09:39:45;95232.00;;;20.01;52.14
73332;BME280;61560;33.718;73.040;2022-11-15T09:45:27;95228.47;;;19.92;52.56
73332;BME280;61560;33.718;73.040;2022-11-15T09:50:59;95219.19;;;19.86;50.87
73332;BME280;61560;33.718;73.040;2022-11-15T09:53:27;95220.75;;;19.87;50.79
73332;BME280;61560;33.718;73.040;2022-11-15T09:55:59;95216.72;;;19.88;50.38
73332;BME280;61560;33.718;73.040;2022-11-15T10:01:32;95210.72;;;19.98;48.29
73332;BME280;61560;33.718;73.040;2022-11-15T10:04:03;95209.94;;;19.98;47.83
73332;BME280;61560;33.718;73.040;2022-11-15T10:06:30;95199.75;;;19.95;47.79
73332;BME280;61560;33.718;73.040;2022-11-15T10:11:29;95200.06;;;19.88;48.59
73332;BME280;61560;33.718;73.040;2022-11-15T10:13:58;95196.19;;;19.85;50.13
73332;BME280;61560;33.718;73.040;2022-11-15T10:16:50;95185.38;;;19.78;50.79
73332;BME280;61560;33.718;73.040;2022-11-15T10:19:27;95191.56;;;19.73;52.11
73332;BME280;61560;33.718;73.040;2022-11-15T10:24:41;95183.03;;;19.58;52.49
73332;BME280;61560;33.718;73.040;2022-11-15T10:27:12;95177.81;;;19.51;52.61
73332;BME280;61560;33.718;73.040;2022-11-15T10:29:43;95177.63;;;19.46;52.76
73332;BME280;61560;33.718;73.040;2022-11-15T10:32:11;95178.56;;;19.43;52.51
73332;BME280;61560;33.718;73.040;2022-11-15T10:34:37;95181.94;;;19.38;53.02
73332;BME280;61560;33.718;73.040;2022-11-15T10:37:04;95170.97;;;19.34;53.06
73332;BME280;61560;33.718;73.040;2022-11-15T10:39:30;95171.56;;;19.29;53.27
73332;BME280;61560;33.718;73.040;2022-11-15T10:42:16;95174.47;;;19.26;52.87
73332;BME280;61560;33.718;73.040;2022-11-15T10:44:44;95170.63;;;19.23;52.91
73332;BME280;61560;33.718;73.040;2022-11-15T10:47:21;95179.41;;;19.22;52.38
73332;BME280;61560;33.718;73.040;2022-11-15T10:49:58;95180.78;;;19.17;51.93
73332;BME280;61560;33.718;73.040;2022-11-15T10:52:25;95171.09;;;19.13;52.14
73332;BME280;61560;33.718;73.040;2022-11-15T10:54:57;95164.59;;;19.16;52.11
73332;BME280;61560;33.718;73.040;2022-11-15T10:57:30;95171.56;;;19.20;51.64
73332;BME280;61560;33.718;73.040;2022-11-15T11:00:00;95165.38;;;19.25;51.87
73332;BME280;61560;33.718;73.040;2022-11-15T11:05:34;95160.91;;;19.28;52.41
73332;BME280;61560;33.718;73.040;2022-11-15T11:10:51;95150.13;;;19.21;53.47
73332;BME280;61560;33.718;73.040;2022-11-15T11:13:23;95145.47;;;19.18;53.24
73332;BME280;61560;33.718;73.040;2022-11-15T11:16:14;95143.94;;;19.17;54.84
73332;BME280;61560;33.718;73.040;2022-11-15T11:21:26;95147.63;;;19.14;55.21
73332;BME280;61560;33.718;73.040;2022-11-15T11:23:59;95140.97;;;19.11;55.13
73332;BME280;61560;33.718;73.040;2022-11-15T11:40:02;95126.38;;;18.71;57.73
73332;BME280;61560;33.718;73.040;2022-11-15T11:42:34;95124.50;;;18.59;59.06
73332;BME280;61560;33.718;73.040;2022-11-15T11:47:46;95120.78;;;18.31;61.43
73332;BME280;61560;33.718;73.040;2022-11-15T11:50:21;95123.66;;;18.19;62.36
73332;BME280;61560;33.718;73.040;2022-11-15T11:55:37;95119.03;;;17.94;63.87
73332;BME280;61560;33.718;73.040;2022-11-15T11:58:10;95118.69;;;17.83;64.40
73332;BME280;61560;33.718;73.040;2022-11-15T12:00:40;95118.94;;;17.76;65.05
73332;BME280;61560;33.718;73.040;2022-11-15T12:03:09;95116.13;;;17.67;65.46
73332;BME280;61560;33.718;73.040;2022-11-15T12:08:44;95121.06;;;17.50;66.78
73332;BME280;61560;33.718;73.040;2022-11-15T12:13:42;95137.69;;;17.38;68.07
73332;BME280;61560;33.718;73.040;2022-11-15T12:18:36;95137.41;;;17.23;69.12
73332;BME280;61560;33.718;73.040;2022-11-15T12:21:05;95136.09;;;17.15;70.34
73332;BME280;61560;33.718;73.040;2022-11-15T12:23:44;95131.25;;;17.06;70.67
73332;BME280;61560;33.718;73.040;2022-11-15T12:26:18;95139.03;;;16.99;71.53
73332;BME280;61560;33.718;73.040;2022-11-15T12:28:56;95138.47;;;16.91;72.09
73332;BME280;61560;33.718;73.040;2022-11-15T12:34:47;95138.19;;;16.77;72.24
73332;BME280;61560;33.718;73.040;2022-11-15T12:36:49;95131.63;;;16.71;72.58
73332;BME280;61560;33.718;73.040;2022-11-15T12:39:16;95126.69;;;16.66;73.01
73332;BME280;61560;33.718;73.040;2022-11-15T12:44:55;95130.56;;;16.56;73.06
73332;BME280;61560;33.718;73.040;2022-11-15T12:47:04;95131.97;;;16.48;73.12
73332;BME280;61560;33.718;73.040;2022-11-15T12:52:06;95148.88;;;16.24;73.14
73332;BME280;61560;33.718;73.040;2022-11-15T13:02:37;95143.63;;;16.01;73.29
73332;BME280;61560;33.718;73.040;2022-11-15T13:15:51;95159.66;;;15.94;74.35
73332;BME280;61560;33.718;73.040;2022-11-15T13:18:29;95160.44;;;15.94;74.29
73332;BME280;61560;33.718;73.040;2022-11-15T13:20:57;95165.19;;;15.94;73.88
73332;BME280;61560;33.718;73.040;2022-11-15T13:23:23;95163.72;;;15.89;74.09
73332;BME280;61560;33.718;73.040;2022-11-15T13:26:12;95163.06;;;15.85;74.18
73332;BME280;61560;33.718;73.040;2022-11-15T13:33:48;95156.97;;;15.78;74.56
73332;BME280;61560;33.718;73.040;2022-11-15T13:36:17;95158.72;;;15.72;74.71
73332;BME280;61560;33.718;73.040;2022-11-15T13:39:03;95157.03;;;15.62;74.91
73332;BME280;61560;33.718;73.040;2022-11-15T13:41:34;95157.22;;;15.54;74.91
73332;BME280;61560;33.718;73.040;2022-11-15T13:44:02;95167.91;;;15.52;74.88
73332;BME280;61560;33.718;73.040;2022-11-15T13:46:32;95172.31;;;15.50;75.02
73332;BME280;61560;33.718;73.040;2022-11-15T13:49:00;95167.13;;;15.52;74.26
73332;BME280;61560;33.718;73.040;2022-11-15T13:51:33;95166.72;;;15.53;74.50
73332;BME280;61560;33.718;73.040;2022-11-15T13:54:03;95168.03;;;15.49;74.69
73332;BME280;61560;33.718;73.040;2022-11-15T13:56:33;95166.91;;;15.46;75.04
73332;BME280;61560;33.718;73.040;2022-11-15T13:59:08;95164.94;;;15.47;75.17
73332;BME280;61560;33.718;73.040;2022-11-15T14:01:35;95164.47;;;15.48;75.09
73332;BME280;61560;33.718;73.040;2022-11-15T14:04:01;95167.13;;;15.52;74.50
73332;BME280;61560;33.718;73.040;2022-11-15T14:06:29;95161.19;;;15.53;74.66
73332;BME280;61560;33.718;73.040;2022-11-15T14:09:04;95166.28;;;15.55;74.49
73332;BME280;61560;33.718;73.040;2022-11-15T14:11:50;95167.81;;;15.56;75.08
73332;BME280;61560;33.718;73.040;2022-11-15T14:14:19;95165.06;;;15.56;75.38
73332;BME280;61560;33.718;73.040;2022-11-15T14:16:47;95161.09;;;15.57;75.23
73332;BME280;61560;33.718;73.040;2022-11-15T14:27:41;95173.00;;;15.54;75.59
73332;BME280;61560;33.718;73.040;2022-11-15T14:30:14;95176.22;;;15.52;75.87
73332;BME280;61560;33.718;73.040;2022-11-15T14:32:45;95180.94;;;15.52;75.97
73332;BME280;61560;33.718;73.040;2022-11-15T14:35:17;95182.94;;;15.51;75.63
73332;BME280;61560;33.718;73.040;2022-11-15T14:37:45;95177.00;;;15.53;75.83
73332;BME280;61560;33.718;73.040;2022-11-15T14:40:13;95178.19;;;15.52;76.28
73332;BME280;61560;33.718;73.040;2022-11-15T14:42:42;95168.69;;;15.53;76.23
73332;BME280;61560;33.718;73.040;2022-11-15T14:45:12;95177.78;;;15.53;76.37
73332;BME280;61560;33.718;73.040;2022-11-15T14:47:41;95175.00;;;15.53;76.14
73332;BME280;61560;33.718;73.040;2022-11-15T14:50:11;95177.31;;;15.55;76.46
73332;BME280;61560;33.718;73.040;2022-11-15T14:52:38;95179.75;;;15.53;76.49
73332;BME280;61560;33.718;73.040;2022-11-15T14:55:10;95179.75;;;15.53;76.42
73332;BME280;61560;33.718;73.040;2022-11-15T14:57:40;95178.63;;;15.50;76.70
73332;BME280;61560;33.718;73.040;2022-11-15T15:00:07;95186.22;;;15.46;77.14
73332;BME280;61560;33.718;73.040;2022-11-15T15:02:38;95185.09;;;15.44;77.16
73332;BME280;61560;33.718;73.040;2022-11-15T15:07:44;95188.66;;;15.44;77.03
73332;BME280;61560;33.718;73.040;2022-11-15T15:10:11;95187.50;;;15.42;77.21
73332;BME280;61560;33.718;73.040;2022-11-15T15:12:38;95197.84;;;15.38;77.56
73332;BME280;61560;33.718;73.040;2022-11-15T15:15:05;95184.94;;;15.35;77.94
73332;BME280;61560;33.718;73.040;2022-11-15T15:17:32;95173.97;;;15.31;77.99
73332;BME280;61560;33.718;73.040;2022-11-15T15:19:59;95184.59;;;15.33;78.17
73332;BME280;61560;33.718;73.040;2022-11-15T15:22:25;95182.59;;;15.33;78.13
73332;BME280;61560;33.718;73.040;2022-11-15T15:24:54;95184.59;;;15.33;78.08
73332;BME280;61560;33.718;73.040;2022-11-15T15:27:21;95176.31;;;15.33;78.12
73332;BME280;61560;33.718;73.040;2022-11-15T15:29:47;95174.31;;;15.33;78.01
73332;BME280;61560;33.718;73.040;2022-11-15T15:32:17;95173.22;;;15.31;77.78
73332;BME280;61560;33.718;73.040;2022-11-15T15:34:44;95171.66;;;15.30;77.29
73332;BME280;61560;33.718;73.040;2022-11-15T15:37:26;95171.31;;;15.28;77.47
73332;BME280;61560;33.718;73.040;2022-11-15T15:39:53;95169.84;;;15.23;77.60
73332;BME280;61560;33.718;73.040;2022-11-15T15:42:22;95166.34;;;15.23;77.15
73332;BME280;61560;33.718;73.040;2022-11-15T15:44:50;95161.22;;;15.21;77.19
73332;BME280;61560;33.718;73.040;2022-11-15T15:47:20;95161.78;;;15.16;77.36
73332;BME280;61560;33.718;73.040;2022-11-15T15:49:47;95168.25;;;15.10;78.01
73332;BME280;61560;33.718;73.040;2022-11-15T15:52:14;95165.25;;;15.04;77.92
73332;BME280;61560;33.718;73.040;2022-11-15T15:54:41;95176.28;;;15.04;77.94
73332;BME280;61560;33.718;73.040;2022-11-15T15:57:08;95168.41;;;15.03;77.79
73332;BME280;61560;33.718;73.040;2022-11-15T15:59:37;95171.16;;;15.03;77.92
73332;BME280;61560;33.718;73.040;2022-11-15T16:02:05;95170.75;;;15.04;78.32
73332;BME280;61560;33.718;73.040;2022-11-15T16:04:33;95168.41;;;15.03;78.18